createdAt,value
2019-02-16T00:00:18.782Z,73.77
2019-02-16T00:01:18.769Z,74.08
2019-02-16T00:02:18.745Z,74.18
2019-02-16T00:03:18.742Z,74.18
2019-02-16T00:04:18.759Z,74.18
2019-02-16T00:05:18.709Z,74.39
2019-02-16T00:06:18.701Z,74.32
2019-02-16T00:07:18.690Z,74.29
2019-02-16T00:08:18.679Z,74.39
2019-02-16T00:09:18.676Z,74.43
2019-02-16T00:10:18.690Z,74.43
2019-02-16T00:11:18.646Z,74.32
2019-02-16T00:12:18.632Z,74.43
2019-02-16T00:13:18.629Z,74.43
2019-02-16T00:14:18.618Z,74.53
2019-02-16T00:15:18.626Z,74.74
2019-02-16T00:16:18.590Z,75.05
2019-02-16T00:17:18.576Z,75.05
2019-02-16T00:18:18.566Z,74.74
2019-02-16T00:19:18.557Z,75.15
2019-02-16T00:20:18.566Z,75.15
2019-02-16T00:21:18.532Z,75.05
2019-02-16T00:22:18.535Z,74.84
2019-02-16T00:23:18.511Z,74.74
2019-02-16T00:24:18.512Z,74.63
2019-02-16T00:25:18.514Z,74.84
2019-02-16T00:26:18.482Z,74.74
2019-02-16T00:27:18.470Z,74.63
2019-02-16T00:28:18.454Z,74.84
2019-02-16T00:29:18.439Z,74.74
2019-02-16T00:30:18.454Z,74.57
2019-02-16T00:31:18.444Z,74.74
2019-02-16T00:32:18.422Z,74.88
2019-02-16T00:33:18.398Z,74.77
2019-02-16T00:34:18.388Z,75.19
2019-02-16T00:35:18.381Z,74.98
2019-02-16T00:36:18.390Z,75.09
2019-02-16T00:37:18.355Z,75.60
2019-02-16T00:38:18.344Z,75.29
2019-02-16T00:39:18.348Z,75.74
2019-02-16T00:40:18.336Z,75.29
2019-02-16T00:41:18.320Z,75.81
2019-02-16T00:42:18.300Z,75.64
2019-02-16T00:43:18.293Z,75.64
2019-02-16T00:44:18.288Z,75.29
2019-02-16T00:45:18.286Z,75.32
2019-02-16T00:46:18.254Z,75.43
2019-02-16T00:47:18.266Z,75.12
2019-02-16T00:48:18.240Z,75.22
2019-02-16T00:49:18.222Z,75.19
2019-02-16T00:50:18.220Z,75.43
2019-02-16T00:51:18.217Z,75.01
2019-02-16T00:52:18.207Z,75.12
2019-02-16T00:53:18.177Z,75.64
2019-02-16T00:54:18.165Z,75.54
2019-02-16T00:55:18.157Z,75.32
2019-02-16T00:56:18.167Z,75.22
2019-02-16T00:57:18.133Z,75.32
2019-02-16T00:58:18.127Z,75.01
2019-02-16T00:59:18.108Z,75.01
2019-02-16T01:00:18.103Z,75.32
2019-02-16T01:01:18.110Z,75.64
2019-02-16T01:02:18.074Z,75.78
2019-02-16T01:03:18.064Z,75.54
2019-02-16T01:04:18.052Z,75.46
2019-02-16T01:05:18.042Z,75.57
2019-02-16T01:06:18.044Z,75.57
2019-02-16T01:07:18.022Z,75.57
2019-02-16T01:08:18.006Z,76.20
2019-02-16T01:09:18.000Z,76.40
2019-02-16T01:10:17.988Z,76.30
2019-02-16T01:11:17.999Z,76.51
2019-02-16T01:12:17.974Z,76.82
2019-02-16T01:13:17.956Z,77.13
2019-02-16T01:14:17.946Z,76.82
2019-02-16T01:15:17.934Z,76.86
2019-02-16T01:16:17.946Z,77.06
2019-02-16T01:17:17.912Z,77.44
2019-02-16T01:18:17.903Z,77.65
2019-02-16T01:19:17.892Z,77.44
2019-02-16T01:20:17.871Z,77.13
2019-02-16T01:21:22.736Z,77.44
2019-02-16T01:22:18.855Z,77.03
2019-02-16T01:23:17.849Z,76.72
2019-02-16T01:24:17.831Z,77.23
2019-02-16T01:25:17.816Z,76.51
2019-02-16T01:26:17.820Z,75.88
2019-02-16T01:27:17.797Z,76.30
2019-02-16T01:28:17.786Z,76.40
2019-02-16T01:29:17.777Z,76.82
2019-02-16T01:30:17.768Z,76.72
2019-02-16T01:31:17.782Z,76.72
2019-02-16T01:32:17.747Z,77.37
2019-02-16T01:33:17.733Z,77.37
2019-02-16T01:34:17.720Z,77.89
2019-02-16T01:35:17.712Z,77.48
2019-02-16T01:36:17.733Z,77.17
2019-02-16T01:37:17.688Z,77.06
2019-02-16T01:38:17.672Z,77.34
2019-02-16T01:39:17.667Z,77.03
2019-02-16T01:40:17.657Z,76.30
2019-02-16T01:41:17.652Z,77.06
2019-02-16T01:42:17.656Z,77.17
2019-02-16T01:43:17.622Z,76.96
2019-02-16T01:44:17.609Z,77.27
2019-02-16T01:45:17.598Z,77.69
2019-02-16T01:46:17.587Z,77.17
2019-02-16T01:47:17.599Z,77.17
2019-02-16T01:48:17.563Z,77.17
2019-02-16T01:49:17.556Z,77.06
2019-02-16T01:50:17.543Z,77.17
2019-02-16T01:51:17.526Z,77.27
2019-02-16T01:52:17.534Z,77.27
2019-02-16T01:53:17.509Z,77.83
2019-02-16T01:54:17.495Z,77.79
2019-02-16T01:55:17.491Z,77.83
2019-02-16T01:56:17.477Z,77.62
2019-02-16T01:57:17.485Z,77.83
2019-02-16T01:58:17.453Z,77.48
2019-02-16T01:59:17.439Z,77.83
2019-02-16T02:00:17.426Z,77.48
2019-02-16T02:01:17.428Z,77.62
2019-02-16T02:02:17.421Z,76.99
2019-02-16T02:03:17.391Z,77.51
2019-02-16T02:04:17.393Z,77.83
2019-02-16T02:05:17.368Z,77.58
2019-02-16T02:06:17.361Z,78.31
2019-02-16T02:07:17.429Z,78.24
2019-02-16T02:08:17.351Z,77.93
2019-02-16T02:09:17.326Z,77.93
2019-02-16T02:10:17.324Z,78.66
2019-02-16T02:11:17.301Z,79.08
2019-02-16T02:12:17.309Z,78.66
2019-02-16T02:13:17.287Z,78.24
2019-02-16T02:14:17.273Z,78.87
2019-02-16T02:15:17.267Z,78.87
2019-02-16T02:16:17.247Z,79.60
2019-02-16T02:17:17.254Z,80.54
2019-02-16T02:18:17.232Z,80.22
2019-02-16T02:19:17.217Z,80.85
2019-02-16T02:20:17.208Z,81.47
2019-02-16T02:21:17.197Z,81.47
2019-02-16T02:22:17.242Z,81.79
2019-02-16T02:23:17.173Z,81.99
2019-02-16T02:24:17.162Z,81.99
2019-02-16T02:25:17.163Z,81.85
2019-02-16T02:26:17.138Z,81.54
2019-02-16T02:27:17.151Z,81.33
2019-02-16T02:28:17.114Z,81.33
2019-02-16T02:29:17.105Z,81.23
2019-02-16T02:30:17.094Z,80.91
2019-02-16T02:31:17.112Z,81.02
2019-02-16T02:32:17.084Z,81.02
2019-02-16T02:33:17.073Z,80.71
2019-02-16T02:34:17.048Z,80.77
2019-02-16T02:35:17.043Z,81.50
2019-02-16T02:36:17.036Z,80.57
2019-02-16T02:37:17.041Z,80.67
2019-02-16T02:38:17.007Z,80.57
2019-02-16T02:39:16.999Z,80.91
2019-02-16T02:40:16.984Z,80.57
2019-02-16T02:41:16.972Z,80.57
2019-02-16T02:42:16.975Z,80.46
2019-02-16T02:43:16.956Z,80.67
2019-02-16T02:44:16.942Z,80.67
2019-02-16T02:45:16.928Z,80.67
2019-02-16T02:46:16.915Z,80.46
2019-02-16T02:47:16.919Z,80.57
2019-02-16T02:48:16.901Z,80.67
2019-02-16T02:49:16.880Z,80.26
2019-02-16T02:50:16.882Z,80.84
2019-02-16T02:51:16.862Z,79.94
2019-02-16T02:52:16.899Z,80.36
2019-02-16T02:53:16.835Z,80.36
2019-02-16T02:54:16.865Z,80.88
2019-02-16T02:55:16.820Z,80.36
2019-02-16T02:56:16.818Z,80.88
2019-02-16T02:57:16.793Z,80.77
2019-02-16T02:58:16.795Z,80.77
2019-02-16T02:59:16.769Z,80.88
2019-02-16T03:00:16.759Z,79.94
2019-02-16T03:01:16.749Z,80.57
2019-02-16T03:02:16.743Z,80.05
2019-02-16T03:03:16.745Z,79.83
2019-02-16T03:04:16.715Z,80.05
2019-02-16T03:05:16.705Z,79.63
2019-02-16T03:06:16.748Z,79.52
2019-02-16T03:07:16.695Z,79.21
2019-02-16T03:08:16.700Z,79.00
2019-02-16T03:09:16.659Z,79.00
2019-02-16T03:10:16.651Z,79.52
2019-02-16T03:11:16.640Z,78.94
2019-02-16T03:12:16.625Z,79.46
2019-02-16T03:13:16.627Z,78.94
2019-02-16T03:14:16.602Z,78.31
2019-02-16T03:15:16.589Z,78.52
2019-02-16T03:16:16.580Z,78.14
2019-02-16T03:17:16.570Z,77.83
2019-02-16T03:18:16.579Z,77.10
2019-02-16T03:19:16.557Z,77.62
2019-02-16T03:20:16.534Z,78.03
2019-02-16T03:21:16.528Z,77.62
2019-02-16T03:22:16.508Z,78.45
2019-02-16T03:23:16.527Z,79.18
2019-02-16T03:24:16.495Z,78.97
2019-02-16T03:25:16.476Z,79.60
2019-02-16T03:26:16.469Z,79.18
2019-02-16T03:27:16.455Z,79.74
2019-02-16T03:28:16.459Z,79.39
2019-02-16T03:29:16.436Z,79.70
2019-02-16T03:30:16.431Z,80.05
2019-02-16T03:31:16.419Z,80.78
2019-02-16T03:32:16.410Z,79.94
2019-02-16T03:33:16.420Z,80.99
2019-02-16T03:34:16.389Z,80.68
2019-02-16T03:35:16.367Z,80.57
2019-02-16T03:36:16.361Z,80.68
2019-02-16T03:37:16.349Z,80.68
2019-02-16T03:38:16.361Z,80.99
2019-02-16T03:39:16.322Z,81.20
2019-02-16T03:40:16.313Z,81.20
2019-02-16T03:41:16.303Z,80.99
2019-02-16T03:42:16.289Z,79.94
2019-02-16T03:43:16.314Z,80.78
2019-02-16T03:44:16.264Z,80.26
2019-02-16T03:45:16.258Z,79.84
2019-02-16T03:46:16.241Z,80.99
2019-02-16T03:47:16.233Z,80.88
2019-02-16T03:48:16.233Z,80.71
2019-02-16T03:49:16.225Z,80.68
2019-02-16T03:50:16.204Z,80.61
2019-02-16T03:51:16.193Z,80.82
2019-02-16T03:52:16.179Z,81.65
2019-02-16T03:53:16.173Z,80.71
2019-02-16T03:54:16.170Z,80.51
2019-02-16T03:55:16.146Z,80.92
2019-02-16T03:56:16.131Z,80.99
2019-02-16T03:57:16.126Z,81.09
2019-02-16T03:58:16.116Z,81.13
2019-02-16T03:59:16.118Z,80.51
2019-02-16T04:00:16.090Z,79.88
2019-02-16T04:01:16.081Z,80.40
2019-02-16T04:02:16.068Z,79.77
2019-02-16T04:03:16.052Z,79.57
2019-02-16T04:04:16.058Z,79.25
2019-02-16T04:05:16.042Z,79.46
2019-02-16T04:06:16.031Z,79.15
2019-02-16T04:07:16.008Z,79.25
2019-02-16T04:08:16.003Z,79.77
2019-02-16T04:09:16.026Z,79.98
2019-02-16T04:10:15.986Z,79.60
2019-02-16T04:11:15.977Z,80.54
2019-02-16T04:12:15.957Z,80.96
2019-02-16T04:13:15.947Z,80.44
2019-02-16T04:14:15.959Z,80.51
2019-02-16T04:15:15.937Z,80.44
2019-02-16T04:16:15.915Z,79.81
2019-02-16T04:17:15.900Z,79.50
2019-02-16T04:18:15.892Z,80.65
2019-02-16T04:19:15.882Z,80.85
2019-02-16T04:20:15.881Z,80.85
2019-02-16T04:21:15.855Z,80.23
2019-02-16T04:22:24.138Z,80.65
2019-02-16T04:23:16.835Z,79.81
2019-02-16T04:24:15.822Z,80.85
2019-02-16T04:25:15.830Z,79.60
2019-02-16T04:26:15.809Z,80.02
2019-02-16T04:27:15.790Z,79.60
2019-02-16T04:28:15.809Z,79.60
2019-02-16T04:29:15.770Z,80.05
2019-02-16T04:30:15.777Z,80.05
2019-02-16T04:31:15.748Z,80.27
2019-02-16T04:32:15.731Z,80.05
2019-02-16T04:33:15.780Z,80.58
2019-02-16T04:34:15.725Z,80.89
2019-02-16T04:35:15.716Z,81.10
2019-02-16T04:36:15.689Z,80.75
2019-02-16T04:37:15.674Z,80.79
2019-02-16T04:38:15.670Z,80.68
2019-02-16T04:39:15.659Z,80.79
2019-02-16T04:40:15.670Z,80.79
2019-02-16T04:41:15.632Z,81.21
2019-02-16T04:42:15.619Z,81.27
2019-02-16T04:43:15.621Z,81.73
2019-02-16T04:44:15.602Z,81.52
2019-02-16T04:45:15.613Z,80.99
2019-02-16T04:46:15.579Z,81.31
2019-02-16T04:47:15.565Z,81.10
2019-02-16T04:48:15.553Z,80.99
2019-02-16T04:49:15.555Z,80.96
2019-02-16T04:50:15.554Z,81.06
2019-02-16T04:51:15.527Z,80.79
2019-02-16T04:52:15.520Z,80.75
2019-02-16T04:53:15.557Z,80.68
2019-02-16T04:54:15.490Z,81.10
2019-02-16T04:55:15.512Z,80.79
2019-02-16T04:56:15.473Z,80.89
2019-02-16T04:57:15.459Z,80.96
2019-02-16T04:58:15.445Z,81.06
2019-02-16T04:59:15.435Z,81.27
2019-02-16T05:00:15.422Z,80.99
2019-02-16T05:01:15.437Z,80.99
2019-02-16T05:02:15.407Z,80.89
2019-02-16T05:03:15.407Z,80.89
2019-02-16T05:04:15.381Z,80.79
2019-02-16T05:05:15.370Z,81.21
2019-02-16T05:06:15.456Z,80.89
2019-02-16T05:07:15.345Z,81.10
2019-02-16T05:08:15.335Z,80.93
2019-02-16T05:09:15.326Z,81.41
2019-02-16T05:10:15.325Z,81.10
2019-02-16T05:11:15.321Z,80.68
2019-02-16T05:12:15.294Z,80.37
2019-02-16T05:13:15.280Z,80.51
2019-02-16T05:14:15.278Z,80.82
2019-02-16T05:15:15.267Z,79.57
2019-02-16T05:16:15.264Z,80.62
2019-02-16T05:17:15.233Z,80.51
2019-02-16T05:18:15.231Z,80.72
2019-02-16T05:19:15.213Z,81.24
2019-02-16T05:20:15.201Z,81.24
2019-02-16T05:21:15.212Z,80.82
2019-02-16T05:22:15.179Z,80.93
2019-02-16T05:23:15.167Z,80.72
2019-02-16T05:24:15.153Z,80.72
2019-02-16T05:25:15.157Z,80.72
2019-02-16T05:26:15.164Z,80.82
2019-02-16T05:27:15.128Z,80.82
2019-02-16T05:28:15.115Z,81.45
2019-02-16T05:29:15.104Z,80.72
2019-02-16T05:30:15.089Z,81.03
2019-02-16T05:31:15.097Z,80.93
2019-02-16T05:32:15.082Z,80.93
2019-02-16T05:33:15.055Z,80.82
2019-02-16T05:34:15.051Z,80.82
2019-02-16T05:35:15.040Z,80.82
2019-02-16T05:36:15.053Z,80.72
2019-02-16T05:37:15.023Z,80.72
2019-02-16T05:38:15.021Z,80.82
2019-02-16T05:39:14.990Z,80.82
2019-02-16T05:40:14.980Z,80.93
2019-02-16T05:41:14.987Z,80.65
2019-02-16T05:42:14.985Z,81.03
2019-02-16T05:43:14.952Z,80.20
2019-02-16T05:44:14.938Z,81.13
2019-02-16T05:45:14.928Z,80.55
2019-02-16T05:46:14.913Z,80.65
2019-02-16T05:47:14.931Z,80.65
2019-02-16T05:48:14.895Z,80.96
2019-02-16T05:49:14.893Z,80.76
2019-02-16T05:50:14.867Z,80.65
2019-02-16T05:51:14.859Z,80.96
2019-02-16T05:52:14.879Z,80.96
2019-02-16T05:53:14.834Z,80.65
2019-02-16T05:54:14.833Z,80.48
2019-02-16T05:55:14.815Z,81.07
2019-02-16T05:56:14.805Z,80.38
2019-02-16T05:57:14.960Z,80.06
2019-02-16T05:58:14.785Z,80.58
2019-02-16T05:59:14.769Z,80.69
2019-02-16T06:00:14.770Z,80.38
2019-02-16T06:01:14.751Z,81.00
2019-02-16T06:02:14.773Z,81.00
2019-02-16T06:03:14.728Z,81.00
2019-02-16T06:04:14.727Z,80.90
2019-02-16T06:05:14.703Z,81.11
2019-02-16T06:06:14.699Z,81.35
2019-02-16T06:07:14.715Z,81.67
2019-02-16T06:08:14.679Z,81.63
2019-02-16T06:09:14.658Z,81.52
2019-02-16T06:10:14.657Z,81.84
2019-02-16T06:11:14.641Z,81.95
2019-02-16T06:12:14.648Z,81.42
2019-02-16T06:13:14.613Z,81.84
2019-02-16T06:14:14.601Z,81.11
2019-02-16T06:15:14.595Z,81.21
2019-02-16T06:16:14.581Z,80.90
2019-02-16T06:17:14.617Z,81.11
2019-02-16T06:18:14.580Z,80.79
2019-02-16T06:19:14.550Z,81.00
2019-02-16T06:20:14.560Z,80.86
2019-02-16T06:21:14.531Z,81.63
2019-02-16T06:22:14.515Z,80.79
2019-02-16T06:23:14.522Z,81.63
2019-02-16T06:24:14.490Z,80.69
2019-02-16T06:25:14.486Z,81.11
2019-02-16T06:26:14.472Z,81.11
2019-02-16T06:27:14.468Z,81.21
2019-02-16T06:28:14.466Z,81.42
2019-02-16T06:29:14.446Z,82.05
2019-02-16T06:30:14.432Z,82.43
2019-02-16T06:31:14.421Z,82.43
2019-02-16T06:32:14.401Z,83.06
2019-02-16T06:33:14.412Z,83.40
2019-02-16T06:34:14.384Z,83.83
2019-02-16T06:35:14.382Z,84.00
2019-02-16T06:36:14.359Z,82.46
2019-02-16T06:37:14.345Z,82.15
2019-02-16T06:38:14.360Z,81.59
2019-02-16T06:39:14.335Z,81.49
2019-02-16T06:40:14.336Z,81.07
2019-02-16T06:41:14.316Z,80.13
2019-02-16T06:42:14.295Z,80.34
2019-02-16T06:43:14.302Z,80.34
2019-02-16T06:44:14.270Z,80.13
2019-02-16T06:45:14.264Z,80.24
2019-02-16T06:46:14.255Z,80.16
2019-02-16T06:47:14.248Z,80.16
2019-02-16T06:48:14.239Z,80.48
2019-02-16T06:49:14.219Z,80.79
2019-02-16T06:50:14.204Z,81.18
2019-02-16T06:51:14.990Z,80.69
2019-02-16T06:52:14.189Z,80.48
2019-02-16T06:53:14.204Z,80.13
2019-02-16T06:54:14.159Z,79.33
2019-02-16T06:55:14.145Z,80.34
2019-02-16T06:56:14.148Z,80.24
2019-02-16T06:57:14.131Z,80.13
2019-02-16T06:58:14.131Z,80.13
2019-02-16T06:59:14.128Z,80.34
2019-02-16T07:00:14.098Z,81.18
2019-02-16T07:01:14.082Z,80.24
2019-02-16T07:02:14.076Z,79.82
2019-02-16T07:03:14.063Z,79.96
2019-02-16T07:04:14.064Z,80.16
2019-02-16T07:05:14.038Z,80.16
2019-02-16T07:06:14.029Z,80.96
2019-02-16T07:07:14.018Z,79.92
2019-02-16T07:08:14.011Z,80.69
2019-02-16T07:09:14.016Z,80.86
2019-02-16T07:10:13.994Z,81.18
2019-02-16T07:11:13.976Z,81.59
2019-02-16T07:12:13.962Z,81.90
2019-02-16T07:13:13.948Z,81.03
2019-02-16T07:14:14.030Z,80.93
2019-02-16T07:15:13.942Z,80.82
2019-02-16T07:16:13.925Z,80.93
2019-02-16T07:17:13.905Z,80.82
2019-02-16T07:18:13.896Z,80.93
2019-02-16T07:19:13.902Z,81.21
2019-02-16T07:20:13.876Z,81.21
2019-02-16T07:21:13.869Z,80.99
2019-02-16T07:22:13.848Z,80.89
2019-02-16T07:23:22.280Z,80.99
2019-02-16T07:24:14.848Z,80.16
2019-02-16T07:25:13.821Z,80.44
2019-02-16T07:26:13.818Z,80.54
2019-02-16T07:27:13.794Z,80.02
2019-02-16T07:28:13.802Z,79.71
2019-02-16T07:29:13.789Z,79.71
2019-02-16T07:30:13.763Z,79.77
2019-02-16T07:31:15.802Z,79.67
2019-02-16T07:32:13.744Z,79.57
2019-02-16T07:33:13.732Z,79.46
2019-02-16T07:34:13.759Z,78.73
2019-02-16T07:35:13.745Z,78.83
2019-02-16T07:36:13.692Z,78.11
2019-02-16T07:37:13.684Z,79.32
2019-02-16T07:38:13.742Z,79.32
2019-02-16T07:39:14.730Z,79.53
2019-02-16T07:40:13.674Z,78.91
2019-02-16T07:41:13.643Z,78.77
2019-02-16T07:42:13.630Z,78.66
2019-02-16T07:43:13.620Z,78.77
2019-02-16T07:44:13.610Z,78.77
2019-02-16T07:45:13.628Z,79.49
2019-02-16T07:46:13.586Z,79.46
2019-02-16T07:47:13.572Z,79.46
2019-02-16T07:48:13.564Z,79.46
2019-02-16T07:49:13.554Z,79.56
2019-02-16T07:50:13.557Z,79.25
2019-02-16T07:51:13.566Z,78.69
2019-02-16T07:52:13.522Z,79.52
2019-02-16T07:53:13.506Z,79.32
2019-02-16T07:54:13.505Z,78.97
2019-02-16T07:55:13.506Z,78.97
2019-02-16T07:56:13.479Z,78.52
2019-02-16T07:57:13.466Z,77.34
2019-02-16T07:58:13.470Z,76.82
2019-02-16T07:59:13.445Z,76.26
2019-02-16T08:00:13.449Z,76.16
2019-02-16T08:01:13.419Z,75.60
2019-02-16T08:02:13.418Z,74.67
2019-02-16T08:03:13.407Z,74.32
2019-02-16T08:04:13.395Z,74.11
2019-02-16T08:05:13.398Z,73.77
2019-02-16T08:06:13.369Z,73.39
2019-02-16T08:07:13.356Z,73.28
2019-02-16T08:08:13.338Z,73.05
2019-02-16T08:09:14.192Z,72.60
2019-02-16T08:10:13.332Z,72.49
2019-02-16T08:11:13.474Z,72.28
2019-02-16T08:12:13.296Z,72.28
2019-02-16T08:13:13.284Z,72.36
2019-02-16T08:14:13.273Z,71.32
2019-02-16T08:15:13.299Z,71.63
2019-02-16T08:16:13.251Z,71.53
2019-02-16T08:17:14.197Z,71.42
2019-02-16T08:18:13.232Z,71.91
2019-02-16T08:19:13.220Z,70.87
2019-02-16T08:20:13.241Z,70.36
2019-02-16T08:21:13.197Z,70.46
2019-02-16T08:22:13.185Z,70.94
2019-02-16T08:23:13.181Z,70.94
2019-02-16T08:24:13.159Z,70.32
2019-02-16T08:25:13.156Z,70.01
2019-02-16T08:26:13.178Z,69.35
2019-02-16T08:27:13.128Z,69.25
2019-02-16T08:28:13.119Z,69.56
2019-02-16T08:29:13.202Z,69.01
2019-02-16T08:30:13.099Z,68.70
2019-02-16T08:31:13.095Z,68.05
2019-02-16T08:32:13.073Z,68.26
2019-02-16T08:33:13.062Z,67.12
2019-02-16T08:34:13.092Z,67.02
2019-02-16T08:35:13.040Z,66.88
2019-02-16T08:36:13.046Z,67.09
2019-02-16T08:37:13.042Z,66.57
2019-02-16T08:38:13.005Z,66.33
2019-02-16T08:39:12.994Z,66.44
2019-02-16T08:40:12.988Z,65.41
2019-02-16T08:41:13.011Z,65.37
2019-02-16T08:42:12.964Z,65.58
2019-02-16T08:43:12.949Z,66.00
2019-02-16T08:44:12.937Z,65.69
2019-02-16T08:45:12.931Z,65.55
2019-02-16T08:46:12.948Z,64.31
2019-02-16T08:47:12.905Z,64.21
2019-02-16T08:48:12.933Z,64.83
2019-02-16T08:49:12.885Z,63.25
2019-02-16T08:50:12.872Z,63.25
2019-02-16T08:51:12.890Z,63.87
2019-02-16T08:52:12.853Z,63.04
2019-02-16T08:53:12.844Z,62.43
2019-02-16T08:54:12.843Z,61.98
2019-02-16T08:55:12.811Z,62.71
2019-02-16T08:56:12.845Z,61.88
2019-02-16T08:57:12.792Z,62.40
2019-02-16T08:58:12.778Z,62.40
2019-02-16T08:59:12.774Z,62.06
2019-02-16T09:00:12.779Z,61.96
2019-02-16T09:01:12.782Z,61.33
2019-02-16T09:02:12.843Z,61.75
2019-02-16T09:03:12.729Z,61.10
2019-02-16T09:04:12.715Z,60.93
2019-02-16T09:05:12.705Z,60.93
2019-02-16T09:06:12.691Z,61.10
2019-02-16T09:07:12.735Z,60.79
2019-02-16T09:08:12.670Z,60.49
2019-02-16T09:09:12.660Z,60.66
2019-02-16T09:10:12.654Z,60.05
2019-02-16T09:11:12.647Z,60.77
2019-02-16T09:12:12.652Z,60.25
2019-02-16T09:13:12.617Z,59.84
2019-02-16T09:14:12.603Z,58.98
2019-02-16T09:15:12.603Z,58.58
2019-02-16T09:16:12.586Z,58.68
2019-02-16T09:17:13.413Z,58.54
2019-02-16T09:18:12.556Z,58.75
2019-02-16T09:19:12.551Z,58.65
2019-02-16T09:20:12.532Z,58.03
2019-02-16T09:21:14.698Z,58.34
2019-02-16T09:22:13.612Z,57.73
2019-02-16T09:23:12.528Z,56.90
2019-02-16T09:24:12.495Z,56.46
2019-02-16T09:25:12.479Z,56.36
2019-02-16T09:26:12.471Z,56.87
2019-02-16T09:27:12.471Z,56.26
2019-02-16T09:28:12.462Z,56.34
2019-02-16T09:29:12.435Z,56.05
2019-02-16T09:30:12.425Z,55.62
2019-02-16T09:31:12.407Z,55.51
2019-02-16T09:32:13.227Z,55.62
2019-02-16T09:33:12.390Z,55.72
2019-02-16T09:34:12.387Z,55.69
2019-02-16T09:35:12.368Z,55.69
2019-02-16T09:36:12.358Z,55.79
2019-02-16T09:37:12.371Z,56.10
2019-02-16T09:38:12.331Z,56.21
2019-02-16T09:39:12.328Z,55.18
2019-02-16T09:40:12.306Z,53.92
2019-02-16T09:41:12.309Z,53.72
2019-02-16T09:42:12.307Z,54.33
2019-02-16T09:43:12.279Z,54.10
2019-02-16T09:44:12.267Z,54.21
2019-02-16T09:45:12.256Z,53.69
2019-02-16T09:46:12.244Z,52.74
2019-02-16T09:47:12.248Z,52.74
2019-02-16T09:48:12.225Z,52.74
2019-02-16T09:49:12.215Z,52.41
2019-02-16T09:50:12.245Z,51.48
2019-02-16T09:51:12.191Z,51.46
2019-02-16T09:52:12.208Z,52.77
2019-02-16T09:53:12.164Z,51.51
2019-02-16T09:54:12.153Z,49.75
2019-02-16T09:55:12.394Z,48.68
2019-02-16T09:56:12.135Z,47.44
2019-02-16T09:57:12.334Z,46.59
2019-02-16T09:58:12.137Z,46.37
2019-02-16T09:59:12.215Z,45.45
2019-02-16T10:00:13.939Z,45.35
2019-02-16T10:01:12.141Z,45.14
2019-02-16T10:02:12.062Z,44.41
2019-02-16T10:03:12.085Z,44.79
2019-02-16T10:04:12.035Z,43.75
2019-02-16T10:05:12.023Z,43.84
2019-02-16T10:06:12.023Z,42.49
2019-02-16T10:07:12.002Z,42.16
2019-02-16T10:08:12.010Z,41.94
2019-02-16T10:09:11.981Z,40.91
2019-02-16T10:10:11.970Z,40.09
2019-02-16T10:11:11.959Z,40.09
2019-02-16T10:12:11.951Z,40.07
2019-02-16T10:13:12.010Z,40.07
2019-02-16T10:14:12.098Z,40.05
2019-02-16T10:15:11.924Z,38.92
2019-02-16T10:16:11.904Z,39.28
2019-02-16T10:17:11.887Z,38.66
2019-02-16T10:18:11.916Z,38.12
2019-02-16T10:19:11.875Z,36.27
2019-02-16T10:20:11.903Z,36.94
2019-02-16T10:21:11.841Z,35.53
2019-02-16T10:22:11.836Z,35.22
2019-02-16T10:23:11.846Z,35.63
2019-02-16T10:24:17.635Z,35.50
2019-02-16T10:25:12.835Z,34.97
2019-02-16T10:26:11.872Z,33.86
2019-02-16T10:27:11.786Z,33.64
2019-02-16T10:28:11.795Z,34.13
2019-02-16T10:29:11.761Z,32.82
2019-02-16T10:30:11.744Z,32.40
2019-02-16T10:31:11.735Z,33.14
2019-02-16T10:32:11.721Z,32.53
2019-02-16T10:33:11.725Z,32.93
2019-02-16T10:34:11.703Z,32.13
2019-02-16T10:35:11.687Z,32.82
2019-02-16T10:36:11.694Z,32.60
2019-02-16T10:37:11.666Z,32.40
2019-02-16T10:38:11.685Z,32.27
2019-02-16T10:39:11.647Z,29.92
2019-02-16T10:40:11.641Z,31.40
2019-02-16T10:41:11.636Z,29.14
2019-02-16T10:42:11.612Z,28.86
2019-02-16T10:43:11.624Z,28.88
2019-02-16T10:44:11.598Z,28.69
2019-02-16T10:45:11.574Z,29.97
2019-02-16T10:46:11.584Z,28.36
2019-02-16T10:47:11.545Z,28.24
2019-02-16T10:48:11.549Z,28.72
2019-02-16T10:49:11.555Z,26.98
2019-02-16T10:50:11.530Z,27.11
2019-02-16T10:51:11.515Z,28.55
2019-02-16T10:52:11.504Z,28.24
2019-02-16T10:53:11.490Z,28.03
2019-02-16T10:54:11.493Z,27.83
2019-02-16T10:55:11.465Z,27.72
2019-02-16T10:56:11.471Z,26.98
2019-02-16T10:57:11.445Z,26.77
2019-02-16T10:58:11.431Z,26.87
2019-02-16T10:59:11.416Z,26.27
2019-02-16T11:00:11.406Z,26.37
2019-02-16T11:01:11.409Z,27.00
2019-02-16T11:02:11.389Z,27.11
2019-02-16T11:03:11.378Z,26.60
2019-02-16T11:04:11.379Z,26.09
2019-02-16T11:05:11.404Z,26.37
2019-02-16T11:06:11.340Z,25.27
2019-02-16T11:07:11.331Z,26.39
2019-02-16T11:08:11.315Z,25.37
2019-02-16T11:09:11.327Z,24.84
2019-02-16T11:10:11.294Z,25.14
2019-02-16T11:11:11.284Z,25.83
2019-02-16T11:12:11.270Z,24.22
2019-02-16T11:13:11.260Z,24.71
2019-02-16T11:14:11.351Z,24.07
2019-02-16T11:15:11.237Z,23.18
2019-02-16T11:16:11.232Z,24.30
2019-02-16T11:17:11.224Z,24.30
2019-02-16T11:18:11.203Z,23.71
2019-02-16T11:19:11.210Z,24.40
2019-02-16T11:20:11.186Z,22.88
2019-02-16T11:21:11.174Z,23.39
2019-02-16T11:22:11.162Z,24.56
2019-02-16T11:23:11.165Z,23.13
2019-02-16T11:24:11.794Z,21.72
2019-02-16T11:25:11.126Z,22.33
2019-02-16T11:26:11.196Z,22.72
2019-02-16T11:27:11.119Z,21.50
2019-02-16T11:28:11.196Z,20.89
2019-02-16T11:29:11.325Z,21.97
2019-02-16T11:30:11.079Z,20.26
2019-02-16T11:31:11.060Z,20.05
2019-02-16T11:32:11.064Z,19.25
2019-02-16T11:33:11.037Z,18.85
2019-02-16T11:34:11.067Z,19.94
2019-02-16T11:35:11.044Z,19.26
2019-02-16T11:36:11.008Z,19.78
2019-02-16T11:37:10.999Z,20.18
2019-02-16T11:38:10.990Z,19.46
2019-02-16T11:39:10.972Z,19.88
2019-02-16T11:40:10.980Z,20.38
2019-02-16T11:41:18.690Z,19.97
2019-02-16T11:42:11.941Z,19.85
2019-02-16T11:43:10.929Z,19.68
2019-02-16T11:44:10.938Z,20.50
2019-02-16T11:45:10.959Z,20.89
2019-02-16T11:46:10.908Z,20.18
2019-02-16T11:47:10.893Z,19.87
2019-02-16T11:48:10.883Z,19.67
2019-02-16T11:49:10.870Z,19.87
2019-02-16T11:50:10.882Z,19.67
2019-02-16T11:51:10.847Z,19.56
2019-02-16T11:52:10.852Z,19.25
2019-02-16T11:53:10.869Z,18.55
2019-02-16T11:54:10.823Z,18.95
2019-02-16T11:55:10.830Z,19.56
2019-02-16T11:56:10.801Z,19.87
2019-02-16T11:57:10.784Z,20.16
2019-02-16T11:58:10.782Z,20.15
2019-02-16T11:59:10.761Z,18.56
2019-02-16T12:00:10.771Z,19.65
2019-02-16T12:01:10.738Z,18.66
2019-02-16T12:02:10.734Z,20.20
2019-02-16T12:03:10.744Z,21.00
2019-02-16T12:04:10.722Z,21.00
2019-02-16T12:05:10.751Z,21.00
2019-02-16T12:06:10.696Z,21.49
2019-02-16T12:07:10.695Z,21.08
2019-02-16T12:08:10.671Z,21.06
2019-02-16T12:09:10.663Z,20.46
2019-02-16T12:10:10.672Z,20.87
2019-02-16T12:11:10.635Z,20.84
2019-02-16T12:12:10.626Z,21.05
2019-02-16T12:13:10.634Z,20.37
2019-02-16T12:14:10.609Z,19.76
2019-02-16T12:15:10.639Z,19.67
2019-02-16T12:16:10.595Z,20.16
2019-02-16T12:17:10.605Z,20.37
2019-02-16T12:18:10.562Z,19.56
2019-02-16T12:19:10.553Z,20.48
2019-02-16T12:20:10.595Z,21.19
2019-02-16T12:21:11.266Z,20.39
2019-02-16T12:22:10.532Z,19.77
2019-02-16T12:23:10.511Z,20.49
2019-02-16T12:24:10.505Z,19.61
2019-02-16T12:25:10.488Z,20.43
2019-02-16T12:26:10.503Z,21.72
2019-02-16T12:27:10.518Z,22.04
2019-02-16T12:28:10.468Z,23.76
2019-02-16T12:29:10.528Z,23.19
2019-02-16T12:30:10.459Z,23.60
2019-02-16T12:31:10.426Z,23.21
2019-02-16T12:32:10.436Z,24.52
2019-02-16T12:33:10.411Z,24.73
2019-02-16T12:34:10.407Z,23.82
2019-02-16T12:35:10.903Z,23.32
2019-02-16T12:36:10.364Z,23.62
2019-02-16T12:37:10.391Z,23.13
2019-02-16T12:38:10.344Z,24.02
2019-02-16T12:39:10.344Z,23.69
2019-02-16T12:40:10.371Z,22.09
2019-02-16T12:41:10.306Z,21.80
2019-02-16T12:42:10.325Z,22.69
2019-02-16T12:44:11.497Z,21.91
2019-02-16T12:45:10.311Z,21.61
2019-02-16T12:46:10.287Z,21.98
2019-02-16T12:47:10.304Z,21.39
2019-02-16T12:48:10.247Z,22.50
2019-02-16T12:49:10.248Z,23.30
2019-02-16T12:50:10.228Z,22.38
2019-02-16T12:51:10.240Z,21.25
2019-02-16T12:52:10.252Z,23.53
2019-02-16T12:53:10.191Z,22.19